Time;durP1;ratioP1;P1;durP2;ratioP2;P2;SDS_P1;SDS_P2;PMS_P1;PMS_P2;Temp;Humidity;BMP_temperature;BMP_pressure;BME280_temperature;BME280_humidity;BME280_pressure;Samples;Min_cycle;Max_cycle;Signal;HPM_P1;HPM_P2
2024/04/14 00:00:37;;;;;;;6.85;3.30;;;17.10;99.90;;;;;;5466410;26;20010;-72
2024/04/14 00:03:03;;;;;;;5.85;3.15;;;16.80;99.90;;;;;;5463468;26;19998;-72
2024/04/14 00:05:28;;;;;;;7.45;3.50;;;16.50;99.90;;;;;;5464715;26;20006;-72
2024/04/14 00:07:54;;;;;;;5.57;3.20;;;16.40;99.90;;;;;;5464994;26;20852;-72
2024/04/14 00:10:20;;;;;;;13.80;3.63;;;16.40;99.90;;;;;;5465174;26;20006;-72
2024/04/14 00:12:45;;;;;;;8.07;3.95;;;16.30;99.90;;;;;;5463188;26;20092;-72
2024/04/14 00:15:11;;;;;;;8.60;3.83;;;16.50;99.90;;;;;;5461973;26;20633;-72
2024/04/14 00:17:37;;;;;;;6.95;3.33;;;16.70;99.90;;;;;;5465693;26;19998;-72
2024/04/14 00:20:03;;;;;;;5.10;2.70;;;16.90;99.90;;;;;;5466167;26;20021;-72
2024/04/14 00:22:29;;;;;;;7.50;3.53;;;17.00;99.90;;;;;;5463364;26;20051;-72
2024/04/14 00:24:55;;;;;;;5.28;3.15;;;16.90;99.90;;;;;;5463205;26;20448;-72
2024/04/14 00:27:21;;;;;;;7.13;2.80;;;16.80;99.90;;;;;;5462140;26;20046;-72
2024/04/14 00:29:47;;;;;;;9.38;3.60;;;16.70;99.90;;;;;;5464106;26;20468;-72
2024/04/14 00:32:13;;;;;;;13.48;3.28;;;16.70;99.90;;;;;;5464456;26;20487;-71
2024/04/14 00:34:39;;;;;;;5.75;3.05;;;16.80;99.90;;;;;;5459311;26;20010;-72
2024/04/14 00:37:05;;;;;;;11.27;4.13;;;16.70;99.90;;;;;;5462201;26;20041;-71
2024/04/14 00:39:31;;;;;;;8.00;3.70;;;16.30;99.90;;;;;;5465664;26;20086;-72
2024/04/14 00:41:56;;;;;;;8.45;3.22;;;16.40;99.90;;;;;;5463259;26;20018;-72
2024/04/14 00:44:22;;;;;;;7.47;2.97;;;16.70;99.90;;;;;;5462337;26;20074;-72
2024/04/14 00:46:48;;;;;;;5.15;2.85;;;16.60;99.90;;;;;;5463721;26;20018;-72
2024/04/14 00:49:13;;;;;;;7.15;3.03;;;16.50;99.90;;;;;;5466781;26;19998;-72
2024/04/14 00:51:39;;;;;;;9.00;3.70;;;16.50;99.90;;;;;;5460489;26;21685;-72
2024/04/14 00:54:05;;;;;;;8.15;4.53;;;16.60;99.90;;;;;;5463233;26;20010;-72
2024/04/14 00:56:31;;;;;;;6.35;3.17;;;16.40;99.90;;;;;;5464876;26;20017;-71
2024/04/14 00:58:57;;;;;;;9.82;3.30;;;16.50;99.90;;;;;;5462397;26;20074;-72
2024/04/14 01:01:23;;;;;;;8.77;3.40;;;16.40;99.90;;;;;;5464454;26;20002;-72
2024/04/14 01:03:49;;;;;;;5.35;2.78;;;16.50;99.90;;;;;;5463811;26;20413;-72
2024/04/14 01:06:16;;;;;;;8.68;3.25;;;16.40;99.90;;;;;;5463889;26;20388;-72
2024/04/14 01:08:42;;;;;;;10.40;3.17;;;16.00;99.90;;;;;;5464846;26;20006;-72
2024/04/14 01:11:07;;;;;;;8.70;3.50;;;16.20;99.90;;;;;;5463279;26;20024;-72
2024/04/14 01:13:33;;;;;;;5.75;2.95;;;16.30;99.90;;;;;;5463217;26;20012;-72
2024/04/14 01:15:58;;;;;;;6.90;3.33;;;16.40;99.90;;;;;;5464795;26;20080;-72
2024/04/14 01:18:24;;;;;;;6.43;3.60;;;16.50;99.90;;;;;;5465430;26;20051;-72
2024/04/14 01:20:50;;;;;;;8.07;3.75;;;16.50;99.90;;;;;;5462150;26;19998;-71
2024/04/14 01:23:15;;;;;;;5.25;2.63;;;16.30;99.90;;;;;;5464069;26;20082;-72
2024/04/14 01:25:41;;;;;;;7.50;2.92;;;16.10;99.90;;;;;;5462886;26;20006;-72
2024/04/14 01:28:06;;;;;;;8.75;3.50;;;16.20;99.90;;;;;;5464016;26;20049;-72
2024/04/14 01:30:32;;;;;;;5.65;3.03;;;16.10;99.90;;;;;;5464498;26;20469;-71
2024/04/14 01:32:57;;;;;;;7.65;3.38;;;16.10;99.90;;;;;;5463505;26;21637;-72
2024/04/14 01:35:23;;;;;;;6.55;3.28;;;16.10;99.90;;;;;;5461923;26;20002;-72
2024/04/14 01:37:49;;;;;;;4.80;2.80;;;16.10;99.90;;;;;;5464250;26;20408;-71
2024/04/14 01:40:14;;;;;;;6.43;2.90;;;16.00;99.90;;;;;;5462923;26;20106;-71
2024/04/14 01:42:41;;;;;;;5.38;2.63;;;16.10;99.90;;;;;;5461671;26;20003;-71
2024/04/14 01:45:09;;;;;;;6.95;3.05;;;16.40;99.90;;;;;;5461213;26;20049;-71
2024/04/14 01:47:36;;;;;;;5.82;2.75;;;16.60;99.90;;;;;;5464691;26;19998;-71
2024/04/14 01:50:02;;;;;;;11.48;3.00;;;16.60;99.90;;;;;;5462017;26;20033;-72
2024/04/14 01:52:28;;;;;;;8.15;2.55;;;16.60;99.90;;;;;;5462938;26;20401;-72
2024/04/14 01:54:54;;;;;;;6.30;2.72;;;16.60;99.90;;;;;;5463357;26;20040;-72
2024/04/14 01:57:19;;;;;;;6.18;2.70;;;16.60;99.90;;;;;;5463586;26;20007;-72
2024/04/14 01:59:45;;;;;;;10.48;3.00;;;16.60;99.90;;;;;;5464420;26;20343;-71
2024/04/14 02:02:10;;;;;;;6.22;2.67;;;16.40;99.90;;;;;;5464606;26;20444;-71
2024/04/14 02:04:37;;;;;;;6.50;3.83;;;16.20;99.90;;;;;;5461794;26;20002;-71
2024/04/14 02:07:02;;;;;;;4.93;2.75;;;16.10;99.90;;;;;;5462933;26;20017;-71
2024/04/14 02:09:28;;;;;;;6.30;3.00;;;15.90;99.90;;;;;;5462098;26;19998;-71
2024/04/14 02:11:54;;;;;;;7.40;2.70;;;15.80;99.90;;;;;;5463636;26;20034;-72
2024/04/14 02:14:19;;;;;;;3.92;2.55;;;15.90;99.90;;;;;;5462491;26;20022;-72
2024/04/14 02:16:45;;;;;;;6.47;2.75;;;15.80;99.90;;;;;;5462229;26;20017;-72
2024/04/14 02:19:11;;;;;;;6.68;3.60;;;15.90;99.90;;;;;;5463692;26;20010;-72
2024/04/14 02:21:37;;;;;;;4.07;2.53;;;16.00;99.90;;;;;;5463086;26;20002;-72
2024/04/14 02:24:03;;;;;;;6.97;3.42;;;16.00;99.90;;;;;;5462051;26;20002;-71
2024/04/14 02:26:29;;;;;;;5.13;2.45;;;16.00;99.90;;;;;;5461853;26;20021;-72
2024/04/14 02:28:54;;;;;;;8.35;2.97;;;16.20;99.90;;;;;;5465033;26;20013;-72
2024/04/14 02:31:21;;;;;;;6.82;2.33;;;16.20;99.90;;;;;;5464339;26;20018;-72
2024/04/14 02:33:47;;;;;;;5.53;2.50;;;16.30;99.90;;;;;;5460583;26;20002;-72
2024/04/14 02:36:12;;;;;;;5.88;2.83;;;16.30;99.90;;;;;;5462035;26;20714;-72
2024/04/14 02:38:38;;;;;;;7.57;2.70;;;16.30;99.90;;;;;;5464387;26;20017;-72
2024/04/14 02:41:04;;;;;;;6.18;2.10;;;16.30;99.90;;;;;;5461346;26;20573;-72
2024/04/14 02:43:33;;;;;;;6.15;3.13;;;16.40;99.90;;;;;;5462188;26;20021;-71
2024/04/14 02:45:59;;;;;;;5.20;2.63;;;16.40;99.90;;;;;;5462655;26;20452;-72
2024/04/14 02:48:24;;;;;;;5.47;2.55;;;16.40;99.90;;;;;;5463671;26;20017;-72
2024/04/14 02:50:50;;;;;;;4.72;1.95;;;16.50;99.90;;;;;;5463021;26;20029;-72
2024/04/14 02:53:16;;;;;;;4.93;2.08;;;16.50;99.90;;;;;;5460764;26;19998;-72
2024/04/14 02:55:42;;;;;;;6.90;2.53;;;16.50;99.90;;;;;;5463096;26;20086;-72
2024/04/14 02:58:08;;;;;;;5.03;2.05;;;16.60;99.90;;;;;;5467873;26;20434;-72
2024/04/14 03:00:34;;;;;;;7.28;2.92;;;16.50;99.90;;;;;;5463173;26;20002;-72
2024/04/14 03:03:00;;;;;;;6.00;2.13;;;16.20;99.90;;;;;;5462311;26;20546;-72
2024/04/14 03:05:25;;;;;;;6.55;2.58;;;16.00;99.90;;;;;;5458655;26;20074;-71
2024/04/14 03:07:52;;;;;;;7.38;2.88;;;15.70;99.90;;;;;;5457986;26;20017;-72
2024/04/14 03:10:18;;;;;;;5.90;2.20;;;15.60;99.90;;;;;;5455215;26;20052;-72
2024/04/14 03:12:44;;;;;;;6.20;2.25;;;16.10;99.90;;;;;;5457623;26;20006;-72
2024/04/14 03:15:11;;;;;;;6.68;2.42;;;16.00;99.90;;;;;;5458739;26;20329;-72
2024/04/14 03:17:37;;;;;;;6.55;2.40;;;15.50;99.90;;;;;;5455093;26;20525;-72
2024/04/14 03:20:05;;;;;;;4.60;2.20;;;15.50;99.90;;;;;;5453977;26;20002;-72
2024/04/14 03:22:31;;;;;;;6.18;2.78;;;15.30;99.90;;;;;;5456629;26;20075;-72
2024/04/14 03:24:57;;;;;;;5.13;2.45;;;15.10;99.90;;;;;;5458126;26;20005;-72
2024/04/14 03:27:22;;;;;;;7.05;2.47;;;15.20;99.90;;;;;;5458514;26;20849;-72
2024/04/14 03:29:48;;;;;;;9.02;2.15;;;15.30;99.90;;;;;;5455861;26;20074;-72
2024/04/14 03:32:14;;;;;;;4.55;2.67;;;15.30;99.90;;;;;;5456799;26;20005;-72
2024/04/14 03:34:42;;;;;;;5.13;2.63;;;15.20;99.90;;;;;;5459075;26;20002;-72
2024/04/14 03:37:09;;;;;;;5.13;2.33;;;15.30;99.90;;;;;;5458534;26;20014;-72
2024/04/14 03:39:35;;;;;;;8.88;2.40;;;15.30;99.90;;;;;;5458388;26;20077;-72
2024/04/14 03:42:00;;;;;;;10.30;2.55;;;15.30;99.90;;;;;;5459474;26;20014;-72
2024/04/14 03:44:30;;;;;;;4.85;2.10;;;15.20;99.90;;;;;;5458977;26;20013;-72
2024/04/14 03:46:55;;;;;;;6.20;2.28;;;15.50;99.90;;;;;;5458057;26;20009;-72
2024/04/14 03:49:21;;;;;;;4.78;2.28;;;15.50;99.90;;;;;;5459090;26;20663;-72
2024/04/14 03:51:47;;;;;;;7.53;2.60;;;15.60;99.90;;;;;;5456955;26;20009;-72
2024/04/14 03:54:12;;;;;;;4.82;2.25;;;15.50;99.90;;;;;;5457024;26;20005;-72
2024/04/14 03:56:38;;;;;;;6.72;2.40;;;15.30;99.90;;;;;;5455807;26;20002;-72
2024/04/14 03:59:04;;;;;;;6.38;2.92;;;15.40;99.90;;;;;;5456194;26;20597;-72
2024/04/14 04:01:29;;;;;;;7.57;2.80;;;15.50;99.90;;;;;;5452568;26;20013;-72
2024/04/14 04:03:55;;;;;;;9.52;2.75;;;15.50;99.90;;;;;;5452958;26;20038;-72
2024/04/14 04:06:21;;;;;;;11.93;3.03;;;15.50;99.90;;;;;;5453075;26;20002;-72
2024/04/14 04:08:47;;;;;;;6.20;2.00;;;15.50;99.90;;;;;;5453411;26;20700;-72
2024/04/14 04:11:12;;;;;;;9.38;2.75;;;15.70;99.90;;;;;;5454410;26;20559;-72
2024/04/14 04:13:38;;;;;;;6.78;2.13;;;15.80;99.90;;;;;;5455777;26;20086;-72
2024/04/14 04:16:05;;;;;;;5.65;1.92;;;15.70;99.90;;;;;;5456027;26;20005;-72
2024/04/14 04:18:32;;;;;;;5.13;1.95;;;15.60;99.90;;;;;;5454610;26;20013;-72
2024/04/14 04:21:03;;;;;;;5.38;2.10;;;15.40;99.90;;;;;;5453991;26;20070;-72
2024/04/14 04:23:29;;;;;;;7.60;2.20;;;15.20;99.90;;;;;;5452708;26;20002;-72
2024/04/14 04:25:57;;;;;;;5.40;2.22;;;15.10;99.90;;;;;;5454970;26;20050;-71
2024/04/14 04:28:23;;;;;;;5.15;2.33;;;15.10;99.90;;;;;;5452626;26;20070;-72
2024/04/14 04:30:52;;;;;;;7.53;2.42;;;15.10;99.90;;;;;;5454828;26;20021;-72
2024/04/14 04:33:18;;;;;;;6.68;2.50;;;15.00;99.90;;;;;;5455324;26;20017;-72
2024/04/14 04:35:58;;;;;;;3.53;1.80;;;14.80;99.90;;;;;;5454156;26;20005;-72
2024/04/14 04:38:25;;;;;;;10.00;2.55;;;14.90;99.90;;;;;;5454704;26;20021;-72
2024/04/14 04:40:52;;;;;;;6.43;2.47;;;14.70;99.90;;;;;;5454283;26;20730;-72
2024/04/14 04:43:18;;;;;;;4.18;2.03;;;14.30;99.90;;;;;;5453767;26;20719;-72
2024/04/14 04:45:44;;;;;;;10.05;2.42;;;14.30;99.90;;;;;;5454302;26;20014;-71
2024/04/14 04:48:10;;;;;;;5.90;2.80;;;14.50;99.90;;;;;;5455502;26;20034;-72
2024/04/14 04:50:35;;;;;;;5.25;2.58;;;14.40;99.90;;;;;;5455166;26;20547;-72
2024/04/14 04:53:04;;;;;;;6.03;2.38;;;14.20;99.90;;;;;;5454299;26;20532;-71
2024/04/14 04:55:29;;;;;;;4.55;2.20;;;14.20;99.90;;;;;;5455929;26;20016;-72
2024/04/14 04:57:55;;;;;;;6.75;2.60;;;14.30;99.90;;;;;;5454418;26;20017;-72
2024/04/14 05:00:20;;;;;;;5.25;2.83;;;14.60;99.90;;;;;;5453458;26;19998;-72
2024/04/14 05:02:46;;;;;;;5.85;2.28;;;14.70;99.90;;;;;;5452749;26;20006;-72
2024/04/14 05:05:12;;;;;;;8.68;2.03;;;14.70;99.90;;;;;;5454771;26;20002;-72
2024/04/14 05:07:37;;;;;;;5.15;2.25;;;14.80;99.90;;;;;;5451254;26;20010;-72
2024/04/14 05:10:04;;;;;;;5.07;1.95;;;15.00;99.90;;;;;;5454841;26;20092;-72
2024/04/14 05:12:30;;;;;;;5.00;2.35;;;15.10;99.90;;;;;;5454231;26;20010;-72
2024/04/14 05:14:55;;;;;;;4.80;2.05;;;14.90;99.90;;;;;;5452390;26;20006;-72
2024/04/14 05:17:21;;;;;;;4.22;1.75;;;15.00;99.90;;;;;;5453270;26;20002;-72
2024/04/14 05:19:46;;;;;;;5.78;1.75;;;15.10;99.90;;;;;;5453406;26;20095;-72
2024/04/14 05:22:12;;;;;;;6.55;2.00;;;14.90;99.90;;;;;;5453531;26;20007;-72
2024/04/14 05:24:38;;;;;;;7.30;2.08;;;15.00;99.90;;;;;;5451683;26;20010;-72
2024/04/14 05:27:06;;;;;;;4.03;1.88;;;15.00;99.90;;;;;;5454098;26;20707;-72
2024/04/14 05:29:31;;;;;;;5.13;1.70;;;15.00;99.90;;;;;;5453604;26;20085;-72
2024/04/14 05:31:57;;;;;;;6.03;2.13;;;15.10;99.90;;;;;;5455602;26;20006;-72
2024/04/14 05:34:22;;;;;;;9.18;2.17;;;14.90;99.90;;;;;;5451771;26;20074;-72
2024/04/14 05:36:48;;;;;;;5.45;2.45;;;14.90;99.90;;;;;;5452336;26;20010;-72
2024/04/14 05:39:14;;;;;;;3.55;1.88;;;14.80;99.90;;;;;;5451340;26;20001;-72
2024/04/14 05:41:39;;;;;;;4.00;1.73;;;15.00;99.90;;;;;;5453426;26;19994;-72
2024/04/14 05:44:05;;;;;;;4.72;1.83;;;14.80;99.90;;;;;;5453746;26;20007;-72
2024/04/14 05:46:31;;;;;;;5.40;2.13;;;14.90;99.90;;;;;;5451950;26;20028;-72
2024/04/14 05:48:56;;;;;;;8.32;2.20;;;14.90;99.90;;;;;;5456753;26;20003;-72
2024/04/14 05:51:22;;;;;;;5.10;2.05;;;14.80;99.90;;;;;;5455895;26;20061;-72
2024/04/14 05:53:50;;;;;;;7.47;2.53;;;15.10;99.90;;;;;;5457161;26;20499;-72
2024/04/14 05:56:16;;;;;;;5.38;2.42;;;15.40;99.90;;;;;;5458695;26;20068;-72
2024/04/14 05:58:42;;;;;;;6.03;2.28;;;15.30;99.90;;;;;;5456780;26;20017;-72
2024/04/14 06:01:08;;;;;;;5.20;2.42;;;15.10;99.90;;;;;;5456183;26;20032;-71
2024/04/14 06:03:33;;;;;;;4.47;1.98;;;14.90;99.90;;;;;;5456294;26;20017;-72
2024/04/14 06:06:00;;;;;;;5.07;2.17;;;15.10;99.90;;;;;;5455861;26;21546;-72
2024/04/14 06:08:25;;;;;;;4.22;2.50;;;15.30;99.90;;;;;;5459322;26;20460;-72
2024/04/14 06:10:51;;;;;;;5.82;2.25;;;15.60;99.90;;;;;;5454177;26;20793;-72
2024/04/14 06:13:17;;;;;;;8.20;2.15;;;15.50;99.90;;;;;;5455992;26;20013;-72
2024/04/14 06:15:44;;;;;;;4.15;2.00;;;15.50;99.90;;;;;;5454409;26;20701;-72
2024/04/14 06:18:09;;;;;;;6.07;2.08;;;15.60;99.90;;;;;;5453341;26;20021;-72
2024/04/14 06:20:39;;;;;;;4.15;1.77;;;15.50;99.90;;;;;;5455173;26;20049;-72
2024/04/14 06:23:05;;;;;;;4.10;2.30;;;15.50;99.90;;;;;;5456897;26;20669;-71
2024/04/14 06:25:31;;;;;;;6.57;1.85;;;15.40;99.90;;;;;;5457047;26;20010;-72
2024/04/14 06:27:56;;;;;;;7.78;2.15;;;15.30;99.90;;;;;;5457868;26;21647;-72
2024/04/14 06:30:22;;;;;;;5.97;2.30;;;15.30;99.90;;;;;;5456067;26;20006;-72
2024/04/14 06:32:50;;;;;;;7.13;2.08;;;15.30;99.90;;;;;;5459401;26;20344;-72
2024/04/14 06:35:16;;;;;;;5.57;2.10;;;15.30;99.90;;;;;;5458076;26;20021;-72
2024/04/14 06:37:41;;;;;;;6.20;2.17;;;15.30;99.90;;;;;;5460711;26;20620;-72
2024/04/14 06:40:08;;;;;;;5.07;2.10;;;15.40;99.90;;;;;;5457856;26;20009;-72
2024/04/14 06:42:33;;;;;;;3.25;1.50;;;15.40;99.90;;;;;;5460129;26;20005;-72
2024/04/14 06:44:59;;;;;;;3.90;1.52;;;15.70;99.90;;;;;;5460058;26;20049;-71
2024/04/14 06:47:24;;;;;;;4.63;1.73;;;16.10;99.90;;;;;;5461051;26;20854;-72
2024/04/14 06:49:50;;;;;;;2.85;1.42;;;16.80;99.90;;;;;;5460811;26;20021;-72
2024/04/14 06:52:15;;;;;;;5.07;1.52;;;17.90;99.90;;;;;;5457879;26;20002;-72
2024/04/14 06:54:41;;;;;;;3.05;1.35;;;19.20;99.70;;;;;;5458578;26;20045;-72
2024/04/14 06:57:07;;;;;;;5.60;1.98;;;19.60;97.70;;;;;;5457606;26;20038;-72
2024/04/14 06:59:34;;;;;;;8.13;2.00;;;20.00;96.70;;;;;;5459120;26;19998;-72
2024/04/14 07:01:59;;;;;;;5.53;1.45;;;20.00;97.10;;;;;;5459113;26;20519;-72
2024/04/14 07:04:25;;;;;;;5.43;1.70;;;20.90;96.10;;;;;;5454086;26;20013;-73
2024/04/14 07:06:51;;;;;;;7.43;2.17;;;22.30;96.20;;;;;;5456590;26;20014;-71
2024/04/14 07:09:16;;;;;;;4.70;2.13;;;23.60;94.70;;;;;;5458162;26;19994;-72
2024/04/14 07:11:42;;;;;;;5.53;1.63;;;23.50;93.30;;;;;;5464230;26;20029;-73
2024/04/14 07:14:07;;;;;;;5.13;1.88;;;24.00;92.50;;;;;;5457784;26;20067;-72
2024/04/14 07:16:33;;;;;;;5.03;1.73;;;25.20;91.80;;;;;;5453634;26;20664;-72
2024/04/14 07:18:59;;;;;;;6.97;2.70;;;25.50;91.50;;;;;;5457980;26;20001;-72
2024/04/14 07:21:24;;;;;;;3.95;1.75;;;25.30;91.50;;;;;;5454056;26;20024;-72
2024/04/14 07:23:50;;;;;;;4.05;1.77;;;25.20;91.20;;;;;;5453749;26;20513;-72
2024/04/14 07:26:15;;;;;;;5.45;2.00;;;24.80;90.70;;;;;;5456935;26;20024;-72
2024/04/14 07:28:41;;;;;;;4.75;2.05;;;25.60;89.00;;;;;;5454566;26;20395;-72
2024/04/14 07:31:07;;;;;;;3.08;1.63;;;25.10;88.60;;;;;;5453139;26;20005;-72
2024/04/14 07:33:33;;;;;;;6.82;2.25;;;22.00;91.40;;;;;;5454728;26;20017;-72
2024/04/14 07:35:59;;;;;;;8.43;2.40;;;19.80;93.70;;;;;;5453185;26;20024;-72
2024/04/14 07:38:25;;;;;;;8.82;2.53;;;18.80;94.70;;;;;;5453316;26;20002;-72
2024/04/14 07:40:50;;;;;;;2.92;1.52;;;18.10;95.90;;;;;;5454706;26;20086;-72
2024/04/14 07:43:16;;;;;;;4.07;1.50;;;17.80;97.40;;;;;;5451432;26;20006;-72
2024/04/14 07:45:42;;;;;;;7.30;2.17;;;17.70;97.90;;;;;;5453046;26;20908;-72
2024/04/14 07:48:07;;;;;;;14.27;4.13;;;17.70;98.00;;;;;;5455604;26;20005;-72
2024/04/14 07:50:33;;;;;;;8.88;2.50;;;17.80;98.40;;;;;;5452679;26;20741;-72
2024/04/14 07:52:58;;;;;;;5.95;2.20;;;17.90;98.70;;;;;;5456520;26;20075;-72
2024/04/14 07:55:24;;;;;;;5.55;2.20;;;17.70;99.20;;;;;;5450884;26;20032;-71
2024/04/14 07:57:50;;;;;;;5.97;2.20;;;17.60;99.70;;;;;;5454659;26;20017;-72
2024/04/14 08:00:15;;;;;;;5.75;2.53;;;17.50;99.80;;;;;;5453729;26;20010;-72
2024/04/14 08:02:42;;;;;;;8.00;2.00;;;17.60;99.50;;;;;;5455404;26;20010;-71
2024/04/14 08:05:08;;;;;;;5.18;2.15;;;17.70;99.00;;;;;;5449107;26;20549;-71
2024/04/14 08:07:33;;;;;;;5.38;1.65;;;17.70;99.00;;;;;;5452900;26;20039;-71
2024/04/14 08:09:59;;;;;;;6.47;1.95;;;17.70;98.80;;;;;;5454740;26;21394;-72
2024/04/14 08:12:27;;;;;;;4.63;2.10;;;17.80;98.60;;;;;;5459151;26;20462;-72
2024/04/14 08:14:53;;;;;;;3.70;1.65;;;17.80;98.20;;;;;;5459782;26;20018;-72
2024/04/14 08:17:18;;;;;;;8.15;1.88;;;17.80;98.90;;;;;;5455919;26;20006;-71
2024/04/14 08:19:44;;;;;;;5.53;2.10;;;18.00;98.60;;;;;;5457770;26;20013;-72
2024/04/14 08:22:10;;;;;;;5.90;2.47;;;18.10;98.00;;;;;;5453963;26;20021;-72
2024/04/14 08:24:35;;;;;;;5.95;2.08;;;18.20;97.70;;;;;;5457192;26;20013;-72
2024/04/14 08:27:01;;;;;;;6.20;2.40;;;18.00;97.70;;;;;;5457926;26;20084;-72
2024/04/14 08:29:26;;;;;;;6.45;1.83;;;18.00;98.10;;;;;;5457543;26;20572;-72
2024/04/14 08:31:55;;;;;;;7.40;2.22;;;18.20;97.80;;;;;;5454980;26;20002;-72
2024/04/14 08:34:20;;;;;;;3.67;1.70;;;18.10;97.50;;;;;;5456480;26;20002;-72
2024/04/14 08:36:46;;;;;;;3.13;1.42;;;18.00;97.30;;;;;;5455934;26;20009;-73
2024/04/14 08:39:14;;;;;;;5.50;2.20;;;18.10;97.70;;;;;;5457196;26;20717;-72
2024/04/14 08:41:41;;;;;;;11.60;2.78;;;18.20;97.70;;;;;;5456767;26;20732;-72
2024/04/14 08:44:10;;;;;;;5.68;1.40;;;18.70;97.10;;;;;;5449976;26;20721;-72
2024/04/14 08:46:36;;;;;;;5.97;2.17;;;21.20;95.60;;;;;;5453138;26;20009;-72
2024/04/14 08:49:03;;;;;;;6.55;1.77;;;22.80;93.70;;;;;;5459241;26;20102;-71
2024/04/14 08:51:29;;;;;;;4.05;2.22;;;24.00;93.30;;;;;;5460770;26;20010;-72
2024/04/14 08:53:56;;;;;;;4.18;1.77;;;23.80;92.40;;;;;;5460330;26;20006;-72
2024/04/14 08:56:23;;;;;;;5.90;2.83;;;24.10;92.00;;;;;;5462285;26;20005;-72
2024/04/14 08:58:56;;;;;;;5.13;1.80;;;24.70;91.80;;;;;;5461610;26;20331;-72
2024/04/14 09:01:23;;;;;;;4.20;1.95;;;24.00;91.40;;;;;;5458442;26;20002;-72
2024/04/14 09:03:51;;;;;;;11.85;2.28;;;25.10;91.10;;;;;;5462052;26;20043;-72
2024/04/14 09:06:19;;;;;;;6.28;2.00;;;24.40;91.30;;;;;;5460618;26;20044;-72
2024/04/14 09:08:45;;;;;;;6.78;1.60;;;24.40;92.50;;;;;;5460733;26;20488;-72
2024/04/14 09:11:10;;;;;;;3.88;2.05;;;24.80;91.50;;;;;;5449630;26;19994;-71
2024/04/14 09:13:36;;;;;;;2.83;1.38;;;25.00;90.70;;;;;;5453097;26;20013;-72
2024/04/14 09:16:02;;;;;;;4.85;1.73;;;25.00;90.70;;;;;;5454441;26;20007;-72
2024/04/14 09:18:28;;;;;;;3.45;1.90;;;23.60;90.80;;;;;;5452953;26;20103;-72
2024/04/14 09:20:53;;;;;;;3.38;1.70;;;22.70;92.60;;;;;;5446209;26;20002;-72
2024/04/14 09:23:19;;;;;;;3.85;1.55;;;21.80;91.40;;;;;;5450312;26;20016;-72
2024/04/14 09:25:44;;;;;;;5.05;1.63;;;21.20;92.50;;;;;;5453395;26;20018;-72
2024/04/14 09:28:11;;;;;;;7.22;1.88;;;20.90;92.00;;;;;;5450983;26;20006;-72
2024/04/14 09:30:38;;;;;;;3.05;1.35;;;20.60;92.40;;;;;;5452497;26;20667;-72
2024/04/14 09:33:04;;;;;;;10.05;3.42;;;20.90;92.50;;;;;;5450293;26;20012;-72
2024/04/14 09:35:29;;;;;;;16.95;5.10;;;20.80;92.90;;;;;;5451973;26;20012;-72
2024/04/14 09:37:55;;;;;;;5.13;1.92;;;20.90;92.90;;;;;;5454302;26;20014;-72
2024/04/14 09:40:25;;;;;;;5.07;2.15;;;20.90;92.60;;;;;;5453454;26;20002;-72
2024/04/14 09:42:57;;;;;;;4.45;2.17;;;21.20;93.10;;;;;;5455003;26;20017;-72
2024/04/14 09:45:24;;;;;;;4.45;1.60;;;21.20;92.60;;;;;;5451539;26;19998;-72
2024/04/14 09:47:53;;;;;;;4.75;2.03;;;21.20;92.90;;;;;;5455700;26;20711;-72
2024/04/14 09:50:22;;;;;;;4.32;2.03;;;21.30;93.00;;;;;;5456529;26;20006;-72
2024/04/14 09:52:52;;;;;;;6.47;1.88;;;21.60;92.50;;;;;;5455057;26;20002;-72
2024/04/14 09:55:20;;;;;;;5.65;2.20;;;21.80;92.20;;;;;;5456649;26;20002;-72
2024/04/14 09:57:47;;;;;;;6.53;1.83;;;21.50;92.30;;;;;;5455908;26;20020;-72
2024/04/14 10:00:13;;;;;;;11.00;2.38;;;21.40;92.50;;;;;;5449649;26;20017;-72
2024/04/14 10:02:46;;;;;;;2.67;1.63;;;21.80;92.80;;;;;;5454767;26;20006;-72
2024/04/14 10:05:13;;;;;;;14.63;2.47;;;22.10;93.30;;;;;;5453173;26;20006;-72
2024/04/14 10:07:39;;;;;;;3.85;1.92;;;22.00;92.90;;;;;;5452564;26;20586;-72
2024/04/14 10:10:10;;;;;;;3.90;1.88;;;21.80;91.80;;;;;;5456537;26;20009;-72
2024/04/14 10:12:36;;;;;;;5.07;2.08;;;21.90;92.10;;;;;;5451308;26;19998;-72
2024/04/14 10:15:03;;;;;;;6.95;2.00;;;22.20;92.50;;;;;;5448372;26;20006;-72
2024/04/14 10:17:29;;;;;;;3.70;1.73;;;22.20;92.40;;;;;;5454896;26;20034;-72
2024/04/14 10:19:56;;;;;;;5.03;2.30;;;22.30;92.90;;;;;;5456816;26;20010;-72
2024/04/14 10:22:49;;;;;;;5.95;2.15;;;22.70;91.90;;;;;;5451241;26;20422;-72
2024/04/14 10:25:25;;;;;;;4.50;1.70;;;22.80;92.30;;;;;;5454652;26;20410;-72
2024/04/14 10:27:52;;;;;;;3.78;2.28;;;22.50;91.40;;;;;;5455723;26;19994;-72
2024/04/14 10:30:21;;;;;;;7.35;2.63;;;22.40;91.90;;;;;;5452791;26;20013;-72
2024/04/14 10:32:48;;;;;;;4.45;1.98;;;22.60;92.70;;;;;;5453989;26;20009;-72
2024/04/14 10:35:17;;;;;;;4.30;1.55;;;22.90;92.00;;;;;;5454336;26;20100;-72
2024/04/14 10:37:53;;;;;;;3.28;1.67;;;22.80;91.50;;;;;;5455326;26;20013;-72
2024/04/14 10:40:19;;;;;;;6.53;1.80;;;22.90;91.70;;;;;;5454027;26;20008;-72
2024/04/14 10:42:46;;;;;;;5.15;1.65;;;23.10;91.20;;;;;;5456129;26;21487;-72
2024/04/14 10:45:12;;;;;;;4.15;1.23;;;23.30;91.30;;;;;;5453105;26;19999;-72
2024/04/14 10:47:39;;;;;;;4.75;1.60;;;23.40;91.00;;;;;;5456567;26;20021;-72
2024/04/14 10:50:05;;;;;;;3.30;1.42;;;23.40;91.00;;;;;;5450985;26;19998;-69
2024/04/14 10:52:32;;;;;;;3.47;1.25;;;23.30;90.90;;;;;;5456715;26;21583;-70
2024/04/14 10:54:57;;;;;;;7.93;2.20;;;23.10;90.10;;;;;;5456111;26;20012;-69
2024/04/14 10:57:23;;;;;;;5.90;2.00;;;23.40;91.50;;;;;;5452457;26;20548;-69
2024/04/14 10:59:48;;;;;;;7.90;1.75;;;23.80;90.00;;;;;;5455761;26;19995;-69
2024/04/14 11:02:14;;;;;;;2.45;1.33;;;23.70;90.30;;;;;;5455994;26;20021;-69
2024/04/14 11:04:41;;;;;;;3.08;1.40;;;23.80;90.50;;;;;;5456037;26;20002;-69
2024/04/14 11:07:08;;;;;;;5.30;1.83;;;23.80;90.40;;;;;;5454095;26;20456;-69
2024/04/14 11:09:35;;;;;;;7.15;1.70;;;24.00;90.70;;;;;;5454465;26;20070;-70
2024/04/14 11:12:03;;;;;;;4.22;1.77;;;24.00;90.00;;;;;;5453388;26;20006;-69
2024/04/14 11:14:29;;;;;;;4.63;1.48;;;24.20;90.10;;;;;;5459796;26;20029;-69
2024/04/14 11:16:55;;;;;;;3.13;1.40;;;24.20;90.30;;;;;;5459211;26;19994;-70
2024/04/14 11:19:21;;;;;;;3.40;1.65;;;24.30;89.60;;;;;;5461894;26;20241;-70
2024/04/14 11:21:46;;;;;;;5.15;1.77;;;24.60;90.40;;;;;;5459135;26;19998;-70
2024/04/14 11:24:12;;;;;;;6.35;1.75;;;24.90;90.80;;;;;;5460372;26;20476;-69
2024/04/14 11:26:41;;;;;;;5.80;1.65;;;24.70;90.50;;;;;;5460375;26;20022;-71
2024/04/14 11:29:07;;;;;;;4.93;1.70;;;24.80;90.30;;;;;;5463830;26;19998;-70
2024/04/14 11:31:36;;;;;;;5.70;1.80;;;24.70;90.00;;;;;;5462315;26;20626;-69
2024/04/14 11:34:02;;;;;;;4.82;1.88;;;24.70;90.50;;;;;;5462708;26;20006;-70
2024/04/14 11:36:33;;;;;;;5.82;2.10;;;25.00;90.40;;;;;;5460316;26;20049;-70
2024/04/14 11:39:01;;;;;;;4.25;1.85;;;25.00;89.70;;;;;;5461264;26;20017;-71
2024/04/14 11:41:26;;;;;;;4.78;1.73;;;25.10;88.60;;;;;;5460841;26;20013;-70
2024/04/14 11:43:52;;;;;;;4.15;1.30;;;24.80;88.20;;;;;;5462580;26;20038;-70
2024/04/14 11:46:18;;;;;;;3.97;1.90;;;24.60;88.30;;;;;;5464221;26;20010;-70
2024/04/14 11:48:44;;;;;;;8.57;2.17;;;24.90;90.00;;;;;;5464397;26;20040;-71
2024/04/14 11:51:10;;;;;;;3.45;1.40;;;25.00;87.10;;;;;;5460157;26;20006;-70
2024/04/14 11:53:36;;;;;;;5.13;1.70;;;24.70;87.10;;;;;;5461691;26;20001;-73
2024/04/14 11:56:02;;;;;;;3.47;1.45;;;24.80;88.70;;;;;;5459639;26;20017;-72
2024/04/14 11:58:28;;;;;;;2.97;1.50;;;24.80;87.90;;;;;;5457822;26;21191;-71
2024/04/14 12:00:54;;;;;;;4.45;1.58;;;24.80;90.00;;;;;;5460743;26;20002;-72
2024/04/14 12:03:19;;;;;;;2.28;1.35;;;25.20;88.60;;;;;;5457772;26;20433;-72
2024/04/14 12:05:45;;;;;;;6.63;2.00;;;25.10;88.20;;;;;;5457880;26;19994;-72
2024/04/14 12:08:10;;;;;;;3.78;1.67;;;25.30;90.40;;;;;;5457240;26;20410;-72
2024/04/14 12:10:36;;;;;;;5.45;1.60;;;25.60;90.50;;;;;;5459345;26;20697;-74
2024/04/14 12:13:02;;;;;;;4.97;1.88;;;25.60;89.50;;;;;;5456600;26;20459;-73
2024/04/14 12:15:27;;;;;;;5.40;2.08;;;25.50;89.40;;;;;;5457998;26;20021;-72
2024/04/14 12:17:53;;;;;;;5.43;1.73;;;25.60;89.10;;;;;;5456477;26;20007;-72
2024/04/14 12:20:18;;;;;;;3.28;1.75;;;25.80;89.40;;;;;;5457216;26;20006;-72
2024/04/14 12:22:44;;;;;;;3.85;1.95;;;26.00;90.70;;;;;;5456373;26;20005;-72
2024/04/14 12:25:10;;;;;;;7.97;1.98;;;25.90;90.60;;;;;;5458453;26;20357;-72
2024/04/14 12:27:35;;;;;;;3.60;1.67;;;25.50;89.90;;;;;;5457283;26;20022;-72
2024/04/14 12:30:01;;;;;;;5.28;1.90;;;25.50;90.20;;;;;;5454693;26;20700;-72
2024/04/14 12:32:29;;;;;;;4.00;1.80;;;25.60;89.70;;;;;;5454101;26;20082;-73
2024/04/14 12:34:55;;;;;;;4.57;2.00;;;25.80;90.10;;;;;;5457270;26;20876;-73
2024/04/14 12:37:20;;;;;;;6.18;2.15;;;25.60;90.20;;;;;;5457410;26;20011;-72
2024/04/14 12:39:46;;;;;;;4.75;1.85;;;25.80;90.50;;;;;;5457600;26;20839;-71